KMCI/MCI METAR and TAF weather

Enter ICAO airport designator
Station Type Date Time Source
KMCI METAR 2022/01/25 03:53 UTC NOAA

KMCI 250353Z 03012KT 10SM CLR M05/M11 A3010 RMK AO2 SLP201 T10501106


Station Type Date Time Source
KMCI Decoded METAR 2022/01/25 03:53 UTC NOAA

KANSAS CITY INTERNATIONAL AIRPORT, MO, United States (KMCI) 39-18N 94-44W 320M
Jan 24, 2022 - 10:53 PM EST / 2022.01.25 0353 UTC
Wind: from the NNE (030 degrees) at 14 MPH (12 KT):0
Visibility: 10 mile(s):0
Sky conditions: clear
Temperature: 23.0 F (-5.0 C)
Windchill: 10 F (-12 C):1
Dew Point: 12.9 F (-10.6 C)
Relative Humidity: 64%
Pressure (altimeter): 30.1 in. Hg (1019 hPa)
ob: KMCI 250353Z 03012KT 10SM CLR M05/M11 A3010 RMK AO2 SLP201 T10501106
cycle: 4

Station Type Date Time Source
KMCI TAF 2022/01/24 18:42 UTC NOAA

TAF KMCI 241740Z 2418/2518 33012G22KT P6SM SCT100
FM242100 35014G22KT P6SM BKN035
FM250300 36008KT P6SM FEW100

Example: see airport list